sensor_id;sensor_type;location;lat;lon;timestamp;temperature;humidity
9810;DHT22;4944;52.514;13.192;2023-04-24T00:01:24;15.20;99.90
9810;DHT22;4944;52.514;13.192;2023-04-24T00:03:51;15.10;99.90
9810;DHT22;4944;52.514;13.192;2023-04-24T00:06:18;15.10;99.90
9810;DHT22;4944;52.514;13.192;2023-04-24T00:08:44;15.10;99.90
9810;DHT22;4944;52.514;13.192;2023-04-24T00:11:13;15.10;99.90
9810;DHT22;4944;52.514;13.192;2023-04-24T00:13:40;15.10;99.90
9810;DHT22;4944;52.514;13.192;2023-04-24T00:16:06;15.10;99.90
9810;DHT22;4944;52.514;13.192;2023-04-24T00:18:33;15.00;99.90
9810;DHT22;4944;52.514;13.192;2023-04-24T00:21:00;15.00;99.90
9810;DHT22;4944;52.514;13.192;2023-04-24T00:23:28;14.90;99.90
9810;DHT22;4944;52.514;13.192;2023-04-24T00:25:55;15.00;99.90
9810;DHT22;4944;52.514;13.192;2023-04-24T00:28:23;15.00;99.90
9810;DHT22;4944;52.514;13.192;2023-04-24T00:30:50;15.00;99.90
9810;DHT22;4944;52.514;13.192;2023-04-24T00:33:17;14.90;99.90
9810;DHT22;4944;52.514;13.192;2023-04-24T00:35:44;14.90;99.90
9810;DHT22;4944;52.514;13.192;2023-04-24T00:38:11;14.80;99.90
9810;DHT22;4944;52.514;13.192;2023-04-24T00:40:38;14.90;99.90
9810;DHT22;4944;52.514;13.192;2023-04-24T00:43:05;14.80;99.90
9810;DHT22;4944;52.514;13.192;2023-04-24T00:45:33;14.80;99.90
9810;DHT22;4944;52.514;13.192;2023-04-24T00:48:00;14.80;99.90
9810;DHT22;4944;52.514;13.192;2023-04-24T00:50:28;14.90;99.90
9810;DHT22;4944;52.514;13.192;2023-04-24T00:52:56;14.90;99.90
9810;DHT22;4944;52.514;13.192;2023-04-24T00:55:22;14.90;99.90
9810;DHT22;4944;52.514;13.192;2023-04-24T00:57:50;14.90;99.90
9810;DHT22;4944;52.514;13.192;2023-04-24T01:00:17;14.90;99.90
9810;DHT22;4944;52.514;13.192;2023-04-24T01:02:47;14.90;99.90
9810;DHT22;4944;52.514;13.192;2023-04-24T01:05:15;15.00;99.90
9810;DHT22;4944;52.514;13.192;2023-04-24T01:07:44;15.00;99.90
9810;DHT22;4944;52.514;13.192;2023-04-24T01:10:14;15.00;99.90
9810;DHT22;4944;52.514;13.192;2023-04-24T01:12:43;15.00;99.90
9810;DHT22;4944;52.514;13.192;2023-04-24T01:15:10;15.00;99.90
9810;DHT22;4944;52.514;13.192;2023-04-24T01:17:37;15.00;99.90
9810;DHT22;4944;52.514;13.192;2023-04-24T01:20:07;14.90;99.90
9810;DHT22;4944;52.514;13.192;2023-04-24T01:22:35;14.80;99.90
9810;DHT22;4944;52.514;13.192;2023-04-24T01:25:03;14.80;99.90
9810;DHT22;4944;52.514;13.192;2023-04-24T01:27:30;14.80;99.90
9810;DHT22;4944;52.514;13.192;2023-04-24T01:29:57;14.80;99.90
9810;DHT22;4944;52.514;13.192;2023-04-24T01:32:25;14.80;99.90
9810;DHT22;4944;52.514;13.192;2023-04-24T01:34:52;14.80;99.90
9810;DHT22;4944;52.514;13.192;2023-04-24T01:37:18;14.80;99.90
9810;DHT22;4944;52.514;13.192;2023-04-24T01:39:47;14.80;99.90
9810;DHT22;4944;52.514;13.192;2023-04-24T01:42:14;14.80;99.90
9810;DHT22;4944;52.514;13.192;2023-04-24T01:44:41;14.80;99.90
9810;DHT22;4944;52.514;13.192;2023-04-24T01:47:08;14.80;99.90
9810;DHT22;4944;52.514;13.192;2023-04-24T01:49:37;14.80;99.90
9810;DHT22;4944;52.514;13.192;2023-04-24T01:52:04;14.70;99.90
9810;DHT22;4944;52.514;13.192;2023-04-24T01:54:31;14.80;99.90
9810;DHT22;4944;52.514;13.192;2023-04-24T01:57:00;14.80;99.90
9810;DHT22;4944;52.514;13.192;2023-04-24T01:59:28;14.70;99.90
9810;DHT22;4944;52.514;13.192;2023-04-24T02:01:55;14.80;99.90
9810;DHT22;4944;52.514;13.192;2023-04-24T02:04:22;14.70;99.90
9810;DHT22;4944;52.514;13.192;2023-04-24T02:06:49;14.70;99.90
9810;DHT22;4944;52.514;13.192;2023-04-24T02:09:16;14.70;99.90
9810;DHT22;4944;52.514;13.192;2023-04-24T02:11:43;14.70;99.90
9810;DHT22;4944;52.514;13.192;2023-04-24T02:14:11;14.60;99.90
9810;DHT22;4944;52.514;13.192;2023-04-24T02:16:38;14.60;99.90
9810;DHT22;4944;52.514;13.192;2023-04-24T02:19:05;14.60;99.90
9810;DHT22;4944;52.514;13.192;2023-04-24T02:21:33;14.60;99.90
9810;DHT22;4944;52.514;13.192;2023-04-24T02:24:00;14.60;99.90
9810;DHT22;4944;52.514;13.192;2023-04-24T02:26:27;14.60;99.90
9810;DHT22;4944;52.514;13.192;2023-04-24T02:28:53;14.60;99.90
9810;DHT22;4944;52.514;13.192;2023-04-24T02:31:22;14.60;99.90
9810;DHT22;4944;52.514;13.192;2023-04-24T02:33:48;14.60;99.90
9810;DHT22;4944;52.514;13.192;2023-04-24T02:36:15;14.60;99.90
9810;DHT22;4944;52.514;13.192;2023-04-24T02:38:42;14.50;99.90
9810;DHT22;4944;52.514;13.192;2023-04-24T02:41:09;14.50;99.90
9810;DHT22;4944;52.514;13.192;2023-04-24T02:43:36;14.50;99.90
9810;DHT22;4944;52.514;13.192;2023-04-24T02:46:03;14.50;99.90
9810;DHT22;4944;52.514;13.192;2023-04-24T02:48:31;14.50;99.90
9810;DHT22;4944;52.514;13.192;2023-04-24T02:50:58;14.50;99.90
9810;DHT22;4944;52.514;13.192;2023-04-24T02:53:25;14.50;99.90
9810;DHT22;4944;52.514;13.192;2023-04-24T02:55:52;14.50;99.90
9810;DHT22;4944;52.514;13.192;2023-04-24T02:58:19;14.50;99.90
9810;DHT22;4944;52.514;13.192;2023-04-24T03:00:46;14.50;99.90
9810;DHT22;4944;52.514;13.192;2023-04-24T03:03:13;14.50;99.90
9810;DHT22;4944;52.514;13.192;2023-04-24T03:05:42;14.40;99.90
9810;DHT22;4944;52.514;13.192;2023-04-24T03:08:09;14.40;99.90
9810;DHT22;4944;52.514;13.192;2023-04-24T03:10:36;14.40;99.90
9810;DHT22;4944;52.514;13.192;2023-04-24T03:13:03;14.40;99.90
9810;DHT22;4944;52.514;13.192;2023-04-24T03:15:30;14.40;99.90
9810;DHT22;4944;52.514;13.192;2023-04-24T03:17:57;14.40;99.90
9810;DHT22;4944;52.514;13.192;2023-04-24T03:20:24;14.40;99.90
9810;DHT22;4944;52.514;13.192;2023-04-24T03:22:52;14.40;99.90
9810;DHT22;4944;52.514;13.192;2023-04-24T03:25:19;14.30;99.90
9810;DHT22;4944;52.514;13.192;2023-04-24T03:27:46;14.30;99.90
9810;DHT22;4944;52.514;13.192;2023-04-24T03:30:13;14.30;99.90
9810;DHT22;4944;52.514;13.192;2023-04-24T03:32:40;14.30;99.90
9810;DHT22;4944;52.514;13.192;2023-04-24T03:35:08;14.30;99.90
9810;DHT22;4944;52.514;13.192;2023-04-24T03:37:35;14.30;99.90
9810;DHT22;4944;52.514;13.192;2023-04-24T03:40:04;14.40;99.90
9810;DHT22;4944;52.514;13.192;2023-04-24T03:42:31;14.30;99.90
9810;DHT22;4944;52.514;13.192;2023-04-24T03:44:58;14.30;99.90
9810;DHT22;4944;52.514;13.192;2023-04-24T03:47:25;14.30;99.90
9810;DHT22;4944;52.514;13.192;2023-04-24T03:49:52;14.30;99.90
9810;DHT22;4944;52.514;13.192;2023-04-24T03:52:19;14.30;99.90
9810;DHT22;4944;52.514;13.192;2023-04-24T03:54:46;14.30;99.90
9810;DHT22;4944;52.514;13.192;2023-04-24T03:57:15;14.30;99.90
9810;DHT22;4944;52.514;13.192;2023-04-24T03:59:41;14.30;99.90
9810;DHT22;4944;52.514;13.192;2023-04-24T04:02:08;14.30;99.90
9810;DHT22;4944;52.514;13.192;2023-04-24T04:04:35;14.30;99.90
9810;DHT22;4944;52.514;13.192;2023-04-24T04:07:02;14.30;99.90
9810;DHT22;4944;52.514;13.192;2023-04-24T04:09:30;14.30;99.90
9810;DHT22;4944;52.514;13.192;2023-04-24T04:11:58;14.30;99.90
9810;DHT22;4944;52.514;13.192;2023-04-24T04:14:27;14.30;99.90
9810;DHT22;4944;52.514;13.192;2023-04-24T04:16:54;14.30;99.90
9810;DHT22;4944;52.514;13.192;2023-04-24T04:19:21;14.30;99.90
9810;DHT22;4944;52.514;13.192;2023-04-24T04:21:48;14.20;99.90
9810;DHT22;4944;52.514;13.192;2023-04-24T04:24:18;14.10;99.90
9810;DHT22;4944;52.514;13.192;2023-04-24T04:26:46;14.00;99.90
9810;DHT22;4944;52.514;13.192;2023-04-24T04:29:17;14.00;99.90
9810;DHT22;4944;52.514;13.192;2023-04-24T04:31:45;14.00;99.90
9810;DHT22;4944;52.514;13.192;2023-04-24T04:34:12;14.00;99.90
9810;DHT22;4944;52.514;13.192;2023-04-24T04:36:40;14.00;99.90
9810;DHT22;4944;52.514;13.192;2023-04-24T04:39:07;14.00;99.90
9810;DHT22;4944;52.514;13.192;2023-04-24T04:41:34;13.90;99.90
9810;DHT22;4944;52.514;13.192;2023-04-24T04:44:01;13.80;99.90
9810;DHT22;4944;52.514;13.192;2023-04-24T04:46:30;13.70;99.90
9810;DHT22;4944;52.514;13.192;2023-04-24T04:49:00;13.60;99.90
9810;DHT22;4944;52.514;13.192;2023-04-24T04:51:28;13.50;99.90
9810;DHT22;4944;52.514;13.192;2023-04-24T04:53:55;13.40;99.90
9810;DHT22;4944;52.514;13.192;2023-04-24T04:56:22;13.50;99.90
9810;DHT22;4944;52.514;13.192;2023-04-24T04:58:49;13.70;99.90
9810;DHT22;4944;52.514;13.192;2023-04-24T05:01:16;13.70;99.90
9810;DHT22;4944;52.514;13.192;2023-04-24T05:03:43;13.80;99.90
9810;DHT22;4944;52.514;13.192;2023-04-24T05:06:11;13.80;99.90
9810;DHT22;4944;52.514;13.192;2023-04-24T05:08:38;13.60;99.90
9810;DHT22;4944;52.514;13.192;2023-04-24T05:11:05;13.60;99.90
9810;DHT22;4944;52.514;13.192;2023-04-24T05:13:32;13.60;99.90
9810;DHT22;4944;52.514;13.192;2023-04-24T05:15:59;13.70;99.90
9810;DHT22;4944;52.514;13.192;2023-04-24T05:18:26;13.80;99.90
9810;DHT22;4944;52.514;13.192;2023-04-24T05:20:53;13.90;99.90
9810;DHT22;4944;52.514;13.192;2023-04-24T05:23:21;14.00;99.90
9810;DHT22;4944;52.514;13.192;2023-04-24T05:25:48;14.00;99.90
9810;DHT22;4944;52.514;13.192;2023-04-24T05:28:15;14.00;99.90
9810;DHT22;4944;52.514;13.192;2023-04-24T05:30:43;14.10;99.90
9810;DHT22;4944;52.514;13.192;2023-04-24T05:33:10;14.00;99.90
9810;DHT22;4944;52.514;13.192;2023-04-24T05:35:37;13.70;99.90
9810;DHT22;4944;52.514;13.192;2023-04-24T05:38:04;13.70;99.90
9810;DHT22;4944;52.514;13.192;2023-04-24T05:40:32;13.70;99.90
9810;DHT22;4944;52.514;13.192;2023-04-24T05:42:59;13.60;99.90
9810;DHT22;4944;52.514;13.192;2023-04-24T05:45:26;13.60;99.90
9810;DHT22;4944;52.514;13.192;2023-04-24T05:47:53;13.60;99.90
9810;DHT22;4944;52.514;13.192;2023-04-24T05:50:20;13.40;99.90
9810;DHT22;4944;52.514;13.192;2023-04-24T05:52:47;13.30;99.90
9810;DHT22;4944;52.514;13.192;2023-04-24T05:55:14;13.30;99.90
9810;DHT22;4944;52.514;13.192;2023-04-24T05:57:44;13.20;99.90
9810;DHT22;4944;52.514;13.192;2023-04-24T06:00:12;13.30;99.90
9810;DHT22;4944;52.514;13.192;2023-04-24T06:02:39;13.30;99.90
9810;DHT22;4944;52.514;13.192;2023-04-24T06:05:07;13.30;99.90
9810;DHT22;4944;52.514;13.192;2023-04-24T06:07:35;13.40;99.90
9810;DHT22;4944;52.514;13.192;2023-04-24T06:10:02;13.40;99.90
9810;DHT22;4944;52.514;13.192;2023-04-24T06:12:29;13.40;99.90
9810;DHT22;4944;52.514;13.192;2023-04-24T06:14:57;13.50;99.90
9810;DHT22;4944;52.514;13.192;2023-04-24T06:17:24;13.60;99.90
9810;DHT22;4944;52.514;13.192;2023-04-24T06:19:51;13.60;99.90
9810;DHT22;4944;52.514;13.192;2023-04-24T06:22:18;13.60;99.90
9810;DHT22;4944;52.514;13.192;2023-04-24T06:24:45;13.60;99.90
9810;DHT22;4944;52.514;13.192;2023-04-24T06:27:12;13.60;99.90
9810;DHT22;4944;52.514;13.192;2023-04-24T06:29:39;13.60;99.90
9810;DHT22;4944;52.514;13.192;2023-04-24T06:32:08;13.70;99.90
9810;DHT22;4944;52.514;13.192;2023-04-24T06:34:34;13.80;99.90
9810;DHT22;4944;52.514;13.192;2023-04-24T06:37:02;13.90;99.90
9810;DHT22;4944;52.514;13.192;2023-04-24T06:39:29;14.00;99.90
9810;DHT22;4944;52.514;13.192;2023-04-24T06:41:56;14.00;99.90
9810;DHT22;4944;52.514;13.192;2023-04-24T06:44:22;14.00;99.90
9810;DHT22;4944;52.514;13.192;2023-04-24T06:46:49;14.00;99.90
9810;DHT22;4944;52.514;13.192;2023-04-24T06:49:18;14.10;99.90
9810;DHT22;4944;52.514;13.192;2023-04-24T06:51:45;14.20;99.90
9810;DHT22;4944;52.514;13.192;2023-04-24T06:54:12;14.20;99.90
9810;DHT22;4944;52.514;13.192;2023-04-24T06:56:39;14.30;99.90
9810;DHT22;4944;52.514;13.192;2023-04-24T06:59:06;14.30;99.90
9810;DHT22;4944;52.514;13.192;2023-04-24T07:01:33;14.30;99.90
9810;DHT22;4944;52.514;13.192;2023-04-24T07:04:00;14.20;99.90
9810;DHT22;4944;52.514;13.192;2023-04-24T07:06:30;14.30;99.90
9810;DHT22;4944;52.514;13.192;2023-04-24T07:08:57;14.20;99.90
9810;DHT22;4944;52.514;13.192;2023-04-24T07:11:24;14.20;99.90
9810;DHT22;4944;52.514;13.192;2023-04-24T07:13:54;14.30;99.90
9810;DHT22;4944;52.514;13.192;2023-04-24T07:16:21;14.20;99.90
9810;DHT22;4944;52.514;13.192;2023-04-24T07:18:48;14.30;99.90
9810;DHT22;4944;52.514;13.192;2023-04-24T07:21:15;14.30;99.90
9810;DHT22;4944;52.514;13.192;2023-04-24T07:23:44;14.40;99.90
9810;DHT22;4944;52.514;13.192;2023-04-24T07:26:10;14.40;99.90
9810;DHT22;4944;52.514;13.192;2023-04-24T07:28:37;14.40;99.90
9810;DHT22;4944;52.514;13.192;2023-04-24T07:31:05;14.50;99.90
9810;DHT22;4944;52.514;13.192;2023-04-24T07:33:32;14.60;99.90
9810;DHT22;4944;52.514;13.192;2023-04-24T07:35:59;14.70;99.90
9810;DHT22;4944;52.514;13.192;2023-04-24T07:38:26;14.80;99.90
9810;DHT22;4944;52.514;13.192;2023-04-24T07:40:54;14.90;99.90
9810;DHT22;4944;52.514;13.192;2023-04-24T07:43:21;14.90;99.90
9810;DHT22;4944;52.514;13.192;2023-04-24T07:45:49;14.90;99.90
9810;DHT22;4944;52.514;13.192;2023-04-24T07:48:16;15.00;99.90
9810;DHT22;4944;52.514;13.192;2023-04-24T07:50:43;15.10;99.90
9810;DHT22;4944;52.514;13.192;2023-04-24T07:53:11;15.20;99.90
9810;DHT22;4944;52.514;13.192;2023-04-24T07:55:38;15.20;99.90
9810;DHT22;4944;52.514;13.192;2023-04-24T07:58:06;15.30;99.90
9810;DHT22;4944;52.514;13.192;2023-04-24T08:00:33;15.30;99.90
9810;DHT22;4944;52.514;13.192;2023-04-24T08:03:00;15.30;99.90
9810;DHT22;4944;52.514;13.192;2023-04-24T08:05:28;15.30;99.90
9810;DHT22;4944;52.514;13.192;2023-04-24T08:07:55;15.40;99.90
9810;DHT22;4944;52.514;13.192;2023-04-24T08:10:22;15.50;99.90
9810;DHT22;4944;52.514;13.192;2023-04-24T08:12:49;15.60;99.90
9810;DHT22;4944;52.514;13.192;2023-04-24T08:15:18;15.70;99.90
9810;DHT22;4944;52.514;13.192;2023-04-24T08:17:45;15.80;99.90
9810;DHT22;4944;52.514;13.192;2023-04-24T08:20:12;15.80;99.90
9810;DHT22;4944;52.514;13.192;2023-04-24T08:22:40;15.70;99.90
9810;DHT22;4944;52.514;13.192;2023-04-24T08:25:08;15.80;99.90
9810;DHT22;4944;52.514;13.192;2023-04-24T08:27:35;15.80;99.90
9810;DHT22;4944;52.514;13.192;2023-04-24T08:30:05;15.80;99.90
9810;DHT22;4944;52.514;13.192;2023-04-24T08:32:33;15.90;99.90
9810;DHT22;4944;52.514;13.192;2023-04-24T08:35:00;15.90;99.90
9810;DHT22;4944;52.514;13.192;2023-04-24T08:37:27;15.90;99.90
9810;DHT22;4944;52.514;13.192;2023-04-24T08:39:54;15.90;99.90
9810;DHT22;4944;52.514;13.192;2023-04-24T08:42:21;16.00;99.90
9810;DHT22;4944;52.514;13.192;2023-04-24T08:44:49;16.00;99.90
9810;DHT22;4944;52.514;13.192;2023-04-24T08:47:16;16.00;99.90
9810;DHT22;4944;52.514;13.192;2023-04-24T08:49:44;16.10;99.90
9810;DHT22;4944;52.514;13.192;2023-04-24T08:52:15;16.10;99.90
9810;DHT22;4944;52.514;13.192;2023-04-24T08:54:43;16.10;99.90
9810;DHT22;4944;52.514;13.192;2023-04-24T08:57:11;16.20;99.90
9810;DHT22;4944;52.514;13.192;2023-04-24T08:59:40;16.20;99.90
9810;DHT22;4944;52.514;13.192;2023-04-24T09:02:10;16.00;99.90
9810;DHT22;4944;52.514;13.192;2023-04-24T09:04:37;16.00;99.90
9810;DHT22;4944;52.514;13.192;2023-04-24T09:07:06;15.90;99.90
9810;DHT22;4944;52.514;13.192;2023-04-24T09:09:35;16.00;99.90
9810;DHT22;4944;52.514;13.192;2023-04-24T09:12:02;16.00;99.90
9810;DHT22;4944;52.514;13.192;2023-04-24T09:14:30;16.10;99.90
9810;DHT22;4944;52.514;13.192;2023-04-24T09:16:57;16.00;99.90
9810;DHT22;4944;52.514;13.192;2023-04-24T09:19:24;16.10;99.90
9810;DHT22;4944;52.514;13.192;2023-04-24T09:21:53;16.20;99.90
9810;DHT22;4944;52.514;13.192;2023-04-24T09:24:22;16.20;99.90
9810;DHT22;4944;52.514;13.192;2023-04-24T09:26:55;16.10;99.90
9810;DHT22;4944;52.514;13.192;2023-04-24T09:29:24;16.10;99.90
9810;DHT22;4944;52.514;13.192;2023-04-24T09:31:51;16.10;99.90
9810;DHT22;4944;52.514;13.192;2023-04-24T09:34:21;16.00;99.90
9810;DHT22;4944;52.514;13.192;2023-04-24T09:36:49;16.00;99.90
9810;DHT22;4944;52.514;13.192;2023-04-24T09:39:17;16.10;99.90
9810;DHT22;4944;52.514;13.192;2023-04-24T09:41:50;16.20;99.90
9810;DHT22;4944;52.514;13.192;2023-04-24T09:44:18;16.30;99.90
9810;DHT22;4944;52.514;13.192;2023-04-24T09:46:50;16.30;99.90
9810;DHT22;4944;52.514;13.192;2023-04-24T09:49:22;16.30;99.90
9810;DHT22;4944;52.514;13.192;2023-04-24T09:51:49;16.40;99.90
9810;DHT22;4944;52.514;13.192;2023-04-24T09:54:17;16.30;99.90
9810;DHT22;4944;52.514;13.192;2023-04-24T09:56:47;16.30;99.90
9810;DHT22;4944;52.514;13.192;2023-04-24T09:59:15;16.30;99.90
9810;DHT22;4944;52.514;13.192;2023-04-24T10:01:42;16.40;99.90
9810;DHT22;4944;52.514;13.192;2023-04-24T10:04:17;16.40;99.90
9810;DHT22;4944;52.514;13.192;2023-04-24T10:06:45;16.50;99.90
9810;DHT22;4944;52.514;13.192;2023-04-24T10:09:14;16.50;99.90
9810;DHT22;4944;52.514;13.192;2023-04-24T10:11:42;16.40;99.90
9810;DHT22;4944;52.514;13.192;2023-04-24T10:14:13;16.40;99.90
9810;DHT22;4944;52.514;13.192;2023-04-24T10:16:40;16.50;99.90
9810;DHT22;4944;52.514;13.192;2023-04-24T10:19:08;16.50;99.90
9810;DHT22;4944;52.514;13.192;2023-04-24T10:21:35;16.40;99.90
9810;DHT22;4944;52.514;13.192;2023-04-24T10:24:04;16.40;99.90
9810;DHT22;4944;52.514;13.192;2023-04-24T10:26:33;16.20;99.90
9810;DHT22;4944;52.514;13.192;2023-04-24T10:29:01;16.00;99.90
9810;DHT22;4944;52.514;13.192;2023-04-24T10:31:31;16.10;99.90
9810;DHT22;4944;52.514;13.192;2023-04-24T10:33:58;16.10;99.90
9810;DHT22;4944;52.514;13.192;2023-04-24T10:36:27;16.10;99.90
9810;DHT22;4944;52.514;13.192;2023-04-24T10:38:59;16.10;99.90
9810;DHT22;4944;52.514;13.192;2023-04-24T10:41:27;16.10;99.90
9810;DHT22;4944;52.514;13.192;2023-04-24T10:44:06;16.20;99.90
9810;DHT22;4944;52.514;13.192;2023-04-24T10:46:34;16.30;99.90
9810;DHT22;4944;52.514;13.192;2023-04-24T10:49:04;16.40;99.90
9810;DHT22;4944;52.514;13.192;2023-04-24T10:51:48;16.40;99.90
9810;DHT22;4944;52.514;13.192;2023-04-24T10:54:25;16.50;99.90
9810;DHT22;4944;52.514;13.192;2023-04-24T10:56:53;16.50;99.90
9810;DHT22;4944;52.514;13.192;2023-04-24T10:59:24;16.50;99.90
9810;DHT22;4944;52.514;13.192;2023-04-24T11:01:54;16.40;99.90
9810;DHT22;4944;52.514;13.192;2023-04-24T11:04:31;16.20;99.90
9810;DHT22;4944;52.514;13.192;2023-04-24T11:06:59;16.00;99.90
9810;DHT22;4944;52.514;13.192;2023-04-24T11:09:27;16.00;99.90
9810;DHT22;4944;52.514;13.192;2023-04-24T11:12:03;15.80;99.90
9810;DHT22;4944;52.514;13.192;2023-04-24T11:14:59;15.70;99.90
9810;DHT22;4944;52.514;13.192;2023-04-24T11:17:32;15.90;99.90
9810;DHT22;4944;52.514;13.192;2023-04-24T11:20:03;16.10;99.90
9810;DHT22;4944;52.514;13.192;2023-04-24T11:22:34;16.40;99.90
9810;DHT22;4944;52.514;13.192;2023-04-24T11:25:02;16.70;99.90
9810;DHT22;4944;52.514;13.192;2023-04-24T11:27:31;17.00;99.90
9810;DHT22;4944;52.514;13.192;2023-04-24T11:30:00;17.10;99.90
9810;DHT22;4944;52.514;13.192;2023-04-24T11:32:28;17.30;99.90
9810;DHT22;4944;52.514;13.192;2023-04-24T11:34:58;17.50;99.90
9810;DHT22;4944;52.514;13.192;2023-04-24T11:37:27;17.70;99.90
9810;DHT22;4944;52.514;13.192;2023-04-24T11:39:56;17.70;99.90
9810;DHT22;4944;52.514;13.192;2023-04-24T11:42:23;17.90;99.90
9810;DHT22;4944;52.514;13.192;2023-04-24T11:44:52;17.90;99.90
9810;DHT22;4944;52.514;13.192;2023-04-24T11:47:27;18.00;99.90
9810;DHT22;4944;52.514;13.192;2023-04-24T11:49:54;18.20;99.90
9810;DHT22;4944;52.514;13.192;2023-04-24T11:52:23;18.40;99.90
9810;DHT22;4944;52.514;13.192;2023-04-24T11:54:50;18.60;99.90
9810;DHT22;4944;52.514;13.192;2023-04-24T11:57:19;18.70;99.90
9810;DHT22;4944;52.514;13.192;2023-04-24T11:59:46;18.70;99.90
9810;DHT22;4944;52.514;13.192;2023-04-24T12:02:21;18.60;99.90
9810;DHT22;4944;52.514;13.192;2023-04-24T12:04:48;18.50;99.90
9810;DHT22;4944;52.514;13.192;2023-04-24T12:07:15;18.30;99.90
9810;DHT22;4944;52.514;13.192;2023-04-24T12:09:45;18.30;99.90
9810;DHT22;4944;52.514;13.192;2023-04-24T12:12:12;18.20;99.90
9810;DHT22;4944;52.514;13.192;2023-04-24T12:14:58;18.20;99.90
9810;DHT22;4944;52.514;13.192;2023-04-24T12:17:26;18.10;99.90
9810;DHT22;4944;52.514;13.192;2023-04-24T12:19:57;18.00;99.90
9810;DHT22;4944;52.514;13.192;2023-04-24T12:22:25;17.80;99.90
9810;DHT22;4944;52.514;13.192;2023-04-24T12:24:58;17.60;99.90
9810;DHT22;4944;52.514;13.192;2023-04-24T12:27:26;17.50;99.90
9810;DHT22;4944;52.514;13.192;2023-04-24T12:29:55;17.40;99.90
9810;DHT22;4944;52.514;13.192;2023-04-24T12:32:22;17.30;99.90
9810;DHT22;4944;52.514;13.192;2023-04-24T12:34:49;17.10;99.90
9810;DHT22;4944;52.514;13.192;2023-04-24T12:37:17;17.00;99.90
9810;DHT22;4944;52.514;13.192;2023-04-24T12:40:03;16.80;99.90
9810;DHT22;4944;52.514;13.192;2023-04-24T12:42:32;16.80;99.90
9810;DHT22;4944;52.514;13.192;2023-04-24T12:45:00;17.00;99.90
9810;DHT22;4944;52.514;13.192;2023-04-24T12:47:28;17.40;99.90
9810;DHT22;4944;52.514;13.192;2023-04-24T12:49:55;17.80;99.90
9810;DHT22;4944;52.514;13.192;2023-04-24T12:52:23;18.10;99.90
9810;DHT22;4944;52.514;13.192;2023-04-24T12:54:53;18.20;99.90
9810;DHT22;4944;52.514;13.192;2023-04-24T12:57:22;18.10;99.90
9810;DHT22;4944;52.514;13.192;2023-04-24T12:59:49;17.70;99.90
9810;DHT22;4944;52.514;13.192;2023-04-24T13:02:16;17.50;99.90
9810;DHT22;4944;52.514;13.192;2023-04-24T13:04:44;17.50;99.90
9810;DHT22;4944;52.514;13.192;2023-04-24T13:07:12;17.40;99.90
9810;DHT22;4944;52.514;13.192;2023-04-24T13:09:39;17.40;99.90
9810;DHT22;4944;52.514;13.192;2023-04-24T13:12:06;17.20;99.90
9810;DHT22;4944;52.514;13.192;2023-04-24T13:14:35;17.20;99.90
9810;DHT22;4944;52.514;13.192;2023-04-24T13:17:03;17.40;99.90
9810;DHT22;4944;52.514;13.192;2023-04-24T13:19:34;17.70;99.90
9810;DHT22;4944;52.514;13.192;2023-04-24T13:22:02;18.00;99.90
9810;DHT22;4944;52.514;13.192;2023-04-24T13:24:29;18.00;99.90
9810;DHT22;4944;52.514;13.192;2023-04-24T13:26:57;18.20;99.90
9810;DHT22;4944;52.514;13.192;2023-04-24T13:29:23;18.20;99.90
9810;DHT22;4944;52.514;13.192;2023-04-24T13:31:53;18.20;99.90
9810;DHT22;4944;52.514;13.192;2023-04-24T13:34:20;18.10;99.90
9810;DHT22;4944;52.514;13.192;2023-04-24T13:36:47;18.10;99.90
9810;DHT22;4944;52.514;13.192;2023-04-24T13:39:14;18.00;99.90
9810;DHT22;4944;52.514;13.192;2023-04-24T13:41:42;17.80;99.90
9810;DHT22;4944;52.514;13.192;2023-04-24T13:44:09;17.70;99.90
9810;DHT22;4944;52.514;13.192;2023-04-24T13:46:36;17.50;99.90
9810;DHT22;4944;52.514;13.192;2023-04-24T13:49:04;17.40;99.90
9810;DHT22;4944;52.514;13.192;2023-04-24T13:51:32;17.50;99.90
9810;DHT22;4944;52.514;13.192;2023-04-24T13:53:59;17.50;99.90
9810;DHT22;4944;52.514;13.192;2023-04-24T13:56:26;17.50;99.90
9810;DHT22;4944;52.514;13.192;2023-04-24T13:58:53;17.60;99.90
9810;DHT22;4944;52.514;13.192;2023-04-24T14:01:20;17.60;99.90
9810;DHT22;4944;52.514;13.192;2023-04-24T14:03:50;17.70;99.90
9810;DHT22;4944;52.514;13.192;2023-04-24T14:06:19;17.70;99.90
9810;DHT22;4944;52.514;13.192;2023-04-24T14:08:46;17.70;99.40
9810;DHT22;4944;52.514;13.192;2023-04-24T14:11:13;17.80;98.20
9810;DHT22;4944;52.514;13.192;2023-04-24T14:13:41;17.90;97.80
9810;DHT22;4944;52.514;13.192;2023-04-24T14:16:08;17.80;97.60
9810;DHT22;4944;52.514;13.192;2023-04-24T14:18:35;18.00;98.10
9810;DHT22;4944;52.514;13.192;2023-04-24T14:21:02;18.10;97.50
9810;DHT22;4944;52.514;13.192;2023-04-24T14:23:30;18.30;96.50
9810;DHT22;4944;52.514;13.192;2023-04-24T14:25:57;18.50;97.20
9810;DHT22;4944;52.514;13.192;2023-04-24T14:28:25;18.40;96.90
9810;DHT22;4944;52.514;13.192;2023-04-24T14:30:52;18.30;97.30
9810;DHT22;4944;52.514;13.192;2023-04-24T14:33:19;18.40;96.70
9810;DHT22;4944;52.514;13.192;2023-04-24T14:35:46;18.60;96.70
9810;DHT22;4944;52.514;13.192;2023-04-24T14:38:13;18.70;96.10
9810;DHT22;4944;52.514;13.192;2023-04-24T14:40:42;18.50;95.40
9810;DHT22;4944;52.514;13.192;2023-04-24T14:43:09;18.20;96.10
9810;DHT22;4944;52.514;13.192;2023-04-24T14:45:37;18.10;96.60
9810;DHT22;4944;52.514;13.192;2023-04-24T14:48:04;17.90;96.80
9810;DHT22;4944;52.514;13.192;2023-04-24T14:50:31;17.80;97.40
9810;DHT22;4944;52.514;13.192;2023-04-24T14:52:58;17.60;97.30
9810;DHT22;4944;52.514;13.192;2023-04-24T14:55:25;17.60;97.40
9810;DHT22;4944;52.514;13.192;2023-04-24T14:57:53;17.80;97.30
9810;DHT22;4944;52.514;13.192;2023-04-24T15:00:20;18.00;96.80
9810;DHT22;4944;52.514;13.192;2023-04-24T15:02:48;18.10;96.90
9810;DHT22;4944;52.514;13.192;2023-04-24T15:05:15;18.10;96.50
9810;DHT22;4944;52.514;13.192;2023-04-24T15:07:42;18.00;96.70
9810;DHT22;4944;52.514;13.192;2023-04-24T15:10:11;17.70;96.80
9810;DHT22;4944;52.514;13.192;2023-04-24T15:12:37;17.40;97.10
9810;DHT22;4944;52.514;13.192;2023-04-24T15:15:08;17.30;97.40
9810;DHT22;4944;52.514;13.192;2023-04-24T15:17:35;17.20;97.80
9810;DHT22;4944;52.514;13.192;2023-04-24T15:20:02;17.10;97.70
9810;DHT22;4944;52.514;13.192;2023-04-24T15:22:31;16.80;98.10
9810;DHT22;4944;52.514;13.192;2023-04-24T15:24:58;16.80;97.80
9810;DHT22;4944;52.514;13.192;2023-04-24T15:27:26;16.70;97.80
9810;DHT22;4944;52.514;13.192;2023-04-24T15:29:53;16.60;98.30
9810;DHT22;4944;52.514;13.192;2023-04-24T15:32:21;16.60;98.40
9810;DHT22;4944;52.514;13.192;2023-04-24T15:34:48;16.60;98.80
9810;DHT22;4944;52.514;13.192;2023-04-24T15:37:17;16.70;98.40
9810;DHT22;4944;52.514;13.192;2023-04-24T15:39:45;16.90;98.80
9810;DHT22;4944;52.514;13.192;2023-04-24T15:42:12;17.20;98.20
9810;DHT22;4944;52.514;13.192;2023-04-24T15:44:39;17.40;97.90
9810;DHT22;4944;52.514;13.192;2023-04-24T15:47:05;17.30;97.70
9810;DHT22;4944;52.514;13.192;2023-04-24T15:49:34;17.30;97.70